Terminal Aerodrome Forecast
Issued by NWS Jackson, MS

Current Version | Previous Version | Text Only | Print | Product List | Glossary On
Versions: 1 2 3 4 5 6 7 8 9 10 11 12 13 14
000
FTUS44 KJAN 260520
TAFHBG
TAF
KHBG 260520Z 2606/2706 VRB03KT P6SM SCT250
     FM260830 25003KT 1SM BR BKN005
     FM261000 26003KT 1/2SM FG VV002
     FM261330 27004KT 6SM BR BKN015
     FM261500 28007KT P6SM FEW025
     FM270000 33004KT P6SM FEW200 SCT250=

USA.gov is the U.S. government's official web portal to all federal, state and local government web resources and services.